createdAt,value
2019-01-19T00:00:40.007Z,1015.22
2019-01-19T00:02:40.032Z,1015.15
2019-01-19T00:03:40.047Z,1015.15
2019-01-19T00:04:40.060Z,1015.15
2019-01-19T00:05:40.070Z,1015.11
2019-01-19T00:06:40.082Z,1015.09
2019-01-19T00:07:40.095Z,1015.14
2019-01-19T00:08:40.107Z,1015.13
2019-01-19T00:09:40.120Z,1015.1
2019-01-19T00:10:40.133Z,1015.14
2019-01-19T00:11:40.146Z,1015.11
2019-01-19T00:12:40.208Z,1015.1
2019-01-19T00:13:40.171Z,1015.12
2019-01-19T00:14:40.186Z,1015.13
2019-01-19T00:15:40.198Z,1015.12
2019-01-19T00:17:40.222Z,1015.2
2019-01-19T00:18:40.235Z,1015.12
2019-01-19T00:19:40.297Z,1015.11
2019-01-19T00:20:40.259Z,1015.1
2019-01-19T00:21:40.273Z,1015.1
2019-01-19T00:22:40.284Z,1015.13
2019-01-19T00:23:40.299Z,1015.09
2019-01-19T00:24:40.362Z,1015.11
2019-01-19T00:25:40.321Z,1015.09
2019-01-19T00:26:40.334Z,1015.15
2019-01-19T00:27:40.347Z,1015.08
2019-01-19T00:28:40.363Z,1015.1
2019-01-19T00:29:40.372Z,1015.06
2019-01-19T00:30:40.384Z,1015.14
2019-01-19T00:31:40.400Z,1015.08
2019-01-19T00:32:40.410Z,1015.1
2019-01-19T00:33:40.422Z,1015.12
2019-01-19T00:34:40.434Z,1015.1
2019-01-19T00:35:40.447Z,1015.1
2019-01-19T00:36:40.458Z,1015.1
2019-01-19T00:37:40.471Z,1015.11
2019-01-19T00:38:40.483Z,1015.1
2019-01-19T00:39:40.496Z,1015.11
2019-01-19T00:40:40.508Z,1015.11
2019-01-19T00:41:40.520Z,1015.09
2019-01-19T00:42:40.533Z,1015.07
2019-01-19T00:43:40.545Z,1015.07
2019-01-19T00:44:40.557Z,1015.07
2019-01-19T00:45:40.570Z,1015.1
2019-01-19T00:46:40.582Z,1015.15
2019-01-19T00:47:40.594Z,1015.12
2019-01-19T00:49:40.619Z,1015.11
2019-01-19T00:50:40.632Z,1015.1
2019-01-19T00:51:40.644Z,1015.11
2019-01-19T00:52:40.655Z,1015.05
2019-01-19T00:53:40.668Z,1015.11
2019-01-19T00:54:40.682Z,1015.05
2019-01-19T00:55:40.693Z,1015.05
2019-01-19T00:56:40.705Z,1015.08
2019-01-19T00:57:40.717Z,1015.07
2019-01-19T00:58:40.729Z,1015.08
2019-01-19T00:59:41.164Z,1015.1
2019-01-19T01:00:40.754Z,1015.1
2019-01-19T01:01:40.767Z,1015.11
2019-01-19T01:02:40.778Z,1015.09
2019-01-19T01:03:40.790Z,1015.09
2019-01-19T01:05:40.815Z,1015.06
2019-01-19T01:06:40.826Z,1015.09
2019-01-19T01:07:40.841Z,1015.04
2019-01-19T01:08:40.853Z,1015.09
2019-01-19T01:09:40.863Z,1015.04
2019-01-19T01:10:40.976Z,1015.07
2019-01-19T01:11:40.942Z,1015.08
2019-01-19T01:12:40.901Z,1015.07
2019-01-19T01:13:40.913Z,1015.04
2019-01-19T01:14:40.925Z,1015.1
2019-01-19T01:15:40.987Z,1015.1
2019-01-19T01:16:40.950Z,1015.13
2019-01-19T01:17:40.962Z,1015.09
2019-01-19T01:18:40.974Z,1015.15
2019-01-19T01:19:40.987Z,1015.11
2019-01-19T01:21:41.011Z,1015.12
2019-01-19T01:22:41.023Z,1015.14
2019-01-19T01:23:41.040Z,1015.14
2019-01-19T01:24:41.047Z,1015.12
2019-01-19T01:25:41.059Z,1015.14
2019-01-19T01:26:41.072Z,1015.13
2019-01-19T01:27:41.085Z,1015.09
2019-01-19T01:28:41.099Z,1015.13
2019-01-19T01:29:41.109Z,1015.14
2019-01-19T01:30:41.122Z,1015.19
2019-01-19T01:31:41.133Z,1015.12
2019-01-19T01:32:41.145Z,1015.12
2019-01-19T01:33:41.157Z,1015.18
2019-01-19T01:34:41.170Z,1015.16
2019-01-19T01:35:41.182Z,1015.2
2019-01-19T01:37:41.207Z,1015.16
2019-01-19T01:38:41.219Z,1015.17
2019-01-19T01:39:41.281Z,1015.18
2019-01-19T01:40:41.243Z,1015.21
2019-01-19T01:41:41.256Z,1015.18
2019-01-19T01:42:41.267Z,1015.23
2019-01-19T01:43:41.281Z,1015.16
2019-01-19T01:44:41.292Z,1015.17
2019-01-19T01:45:41.304Z,1015.19
2019-01-19T01:46:41.320Z,1015.21
2019-01-19T01:47:41.328Z,1015.19
2019-01-19T01:48:41.341Z,1015.18
2019-01-19T01:49:41.355Z,1015.16
2019-01-19T01:50:41.366Z,1015.17
2019-01-19T01:52:41.391Z,1015.2
2019-01-19T01:53:41.402Z,1015.16
2019-01-19T01:54:41.415Z,1015.15
2019-01-19T01:55:41.429Z,1015.19
2019-01-19T01:56:41.440Z,1015.18
2019-01-19T01:57:41.452Z,1015.17
2019-01-19T01:58:41.465Z,1015.15
2019-01-19T01:59:41.477Z,1015.18
2019-01-19T02:00:41.489Z,1015.21
2019-01-19T02:01:41.501Z,1015.17
2019-01-19T02:02:41.514Z,1015.17
2019-01-19T02:03:41.526Z,1015.18
2019-01-19T02:04:41.538Z,1015.14
2019-01-19T02:05:41.550Z,1015.16
2019-01-19T02:06:41.563Z,1015.14
2019-01-19T02:07:41.577Z,1015.13
2019-01-19T02:08:41.587Z,1015.15
2019-01-19T02:09:41.599Z,1015.15
2019-01-19T02:10:41.612Z,1015.15
2019-01-19T02:11:41.624Z,1015.12
2019-01-19T02:12:41.636Z,1015.09
2019-01-19T02:13:41.649Z,1015.11
2019-01-19T02:14:41.665Z,1015.1
2019-01-19T02:15:41.673Z,1015.07
2019-01-19T02:16:41.685Z,1015.09
2019-01-19T02:17:41.698Z,1015.06
2019-01-19T02:18:41.711Z,1015.07
2019-01-19T02:19:41.722Z,1015.06
2019-01-19T02:20:41.735Z,1015.07
2019-01-19T02:21:41.748Z,1015.07
2019-01-19T02:22:41.759Z,1015.09
2019-01-19T02:24:41.834Z,1015.08
2019-01-19T02:25:41.797Z,1015.08
2019-01-19T02:26:41.808Z,1015.12
2019-01-19T02:27:41.821Z,1015.11
2019-01-19T02:28:41.851Z,1015.12
2019-01-19T02:29:41.846Z,1015.11
2019-01-19T02:30:41.858Z,1015.11
2019-01-19T02:31:41.971Z,1015.04
2019-01-19T02:32:41.883Z,1015.09
2019-01-19T02:33:41.896Z,1015.08
2019-01-19T02:34:41.908Z,1015.09
2019-01-19T02:35:48.282Z,1015.03
2019-01-19T02:36:41.932Z,1015.04
2019-01-19T02:37:41.945Z,1015.1
2019-01-19T02:38:41.956Z,1015.09
2019-01-19T02:40:41.981Z,1015.03
2019-01-19T02:41:41.993Z,1015.05
2019-01-19T02:42:42.005Z,1015.05
2019-01-19T02:43:42.017Z,1015.02
2019-01-19T02:44:42.029Z,1015.05
2019-01-19T02:45:42.041Z,1015.03
2019-01-19T02:46:42.054Z,1015.04
2019-01-19T02:47:42.066Z,1015.06
2019-01-19T02:48:42.077Z,1015.06
2019-01-19T02:49:42.090Z,1015.05
2019-01-19T02:50:42.102Z,1015.02
2019-01-19T02:51:42.114Z,1015
2019-01-19T02:52:42.126Z,1015.01
2019-01-19T02:53:42.141Z,1015.05
2019-01-19T02:54:42.151Z,1014.99
2019-01-19T02:56:42.174Z,1015.02
2019-01-19T02:57:42.187Z,1015.04
2019-01-19T02:58:42.199Z,1015.03
2019-01-19T02:59:42.211Z,1015.05
2019-01-19T03:00:42.222Z,1015.01
2019-01-19T03:01:42.235Z,1015.06
2019-01-19T03:02:42.249Z,1015.04
2019-01-19T03:03:42.258Z,1015.04
2019-01-19T03:04:42.324Z,1015.03
2019-01-19T03:05:42.283Z,1015.05
2019-01-19T03:06:42.296Z,1015.02
2019-01-19T03:07:42.309Z,1015
2019-01-19T03:08:42.320Z,1015
2019-01-19T03:09:42.385Z,1015
2019-01-19T03:10:42.343Z,1015
2019-01-19T03:12:42.369Z,1014.98
2019-01-19T03:13:42.435Z,1014.95
2019-01-19T03:14:42.402Z,1014.97
2019-01-19T03:15:42.404Z,1014.92
2019-01-19T03:16:42.448Z,1014.93
2019-01-19T03:17:42.427Z,1014.96
2019-01-19T03:18:42.441Z,1014.95
2019-01-19T03:19:42.452Z,1014.91
2019-01-19T03:20:42.467Z,1014.92
2019-01-19T03:21:42.476Z,1014.91
2019-01-19T03:22:42.489Z,1014.92
2019-01-19T03:23:42.501Z,1014.9
2019-01-19T03:24:42.513Z,1014.94
2019-01-19T03:25:42.576Z,1014.93
2019-01-19T03:27:42.551Z,1014.92
2019-01-19T03:28:42.613Z,1014.91
2019-01-19T03:29:42.624Z,1014.91
2019-01-19T03:30:42.639Z,1014.99
2019-01-19T03:31:42.605Z,1014.95
2019-01-19T03:32:42.612Z,1014.92
2019-01-19T03:33:42.621Z,1014.98
2019-01-19T03:34:42.636Z,1014.94
2019-01-19T03:35:42.646Z,1014.93
2019-01-19T03:36:42.657Z,1014.96
2019-01-19T03:37:42.669Z,1014.98
2019-01-19T03:38:42.682Z,1015
2019-01-19T03:39:42.693Z,1014.98
2019-01-19T03:40:42.705Z,1014.99
2019-01-19T03:41:42.717Z,1014.98
2019-01-19T03:42:42.730Z,1015.02
2019-01-19T03:43:42.746Z,1015.02
2019-01-19T03:44:42.760Z,1015.03
2019-01-19T03:45:42.765Z,1015.03
2019-01-19T03:46:42.776Z,1014.99
2019-01-19T03:47:42.889Z,1015.01
2019-01-19T03:48:42.801Z,1015.01
2019-01-19T03:49:42.814Z,1015.04
2019-01-19T03:50:42.824Z,1015.04
2019-01-19T03:51:42.835Z,1015.01
2019-01-19T03:52:42.849Z,1015
2019-01-19T03:53:42.860Z,1015
2019-01-19T03:54:42.877Z,1015
2019-01-19T03:55:42.886Z,1015
2019-01-19T03:56:42.896Z,1015
2019-01-19T03:57:42.907Z,1015.06
2019-01-19T03:59:42.931Z,1015.05
2019-01-19T04:00:42.945Z,1015.02
2019-01-19T04:01:42.955Z,1015.02
2019-01-19T04:02:42.966Z,1015.02
2019-01-19T04:03:42.978Z,1015.04
2019-01-19T04:04:42.999Z,1015.04
2019-01-19T04:05:43.002Z,1015.03
2019-01-19T04:06:43.015Z,1015.04
2019-01-19T04:07:43.060Z,1015.05
2019-01-19T04:08:43.037Z,1015.04
2019-01-19T04:09:43.050Z,1015.04
2019-01-19T04:10:43.060Z,1015.08
2019-01-19T04:11:43.073Z,1015.07
2019-01-19T04:12:43.084Z,1015.07
2019-01-19T04:13:43.098Z,1015.07
2019-01-19T04:15:43.119Z,1015.07
2019-01-19T04:16:43.130Z,1015.12
2019-01-19T04:17:43.143Z,1015.11
2019-01-19T04:18:43.154Z,1015.1
2019-01-19T04:19:43.167Z,1015.09
2019-01-19T04:20:43.178Z,1015.05
2019-01-19T04:21:43.195Z,1015.06
2019-01-19T04:22:43.202Z,1015.09
2019-01-19T04:23:43.212Z,1015.06
2019-01-19T04:24:43.228Z,1015.09
2019-01-19T04:25:43.288Z,1015.05
2019-01-19T04:26:43.250Z,1015.07
2019-01-19T04:27:43.259Z,1015.06
2019-01-19T04:28:43.272Z,1015.06
2019-01-19T04:29:43.333Z,1015.06
2019-01-19T04:31:43.307Z,1015.06
2019-01-19T04:32:43.370Z,1015.08
2019-01-19T04:33:43.331Z,1015.08
2019-01-19T04:34:43.346Z,1015.1
2019-01-19T04:35:43.353Z,1015.08
2019-01-19T04:36:43.365Z,1015.11
2019-01-19T04:37:43.377Z,1015.07
2019-01-19T04:38:43.391Z,1015.08
2019-01-19T04:39:43.401Z,1015.07
2019-01-19T04:40:43.413Z,1015.05
2019-01-19T04:41:43.423Z,1015.04
2019-01-19T04:42:43.438Z,1015.04
2019-01-19T04:43:43.447Z,1015.05
2019-01-19T04:44:43.459Z,1015.06
2019-01-19T04:45:43.470Z,1015.1
2019-01-19T04:47:43.494Z,1015.1
2019-01-19T04:48:43.506Z,1015.08
2019-01-19T04:49:43.517Z,1015.11
2019-01-19T04:50:43.530Z,1015.12
2019-01-19T04:51:43.542Z,1015.09
2019-01-19T04:52:43.552Z,1015.12
2019-01-19T04:53:43.563Z,1015.15
2019-01-19T04:54:43.575Z,1015.09
2019-01-19T04:55:43.588Z,1015.13
2019-01-19T04:56:43.600Z,1015.09
2019-01-19T04:57:43.660Z,1015.12
2019-01-19T04:58:43.622Z,1015.09
2019-01-19T04:59:43.633Z,1015.11
2019-01-19T05:00:43.648Z,1015.14
2019-01-19T05:02:43.669Z,1015.11
2019-01-19T05:03:43.681Z,1015.12
2019-01-19T05:04:43.692Z,1015.12
2019-01-19T05:05:43.705Z,1015.06
2019-01-19T05:06:43.716Z,1015.1
2019-01-19T05:07:43.727Z,1015.07
2019-01-19T05:08:43.739Z,1015.05
2019-01-19T05:09:43.750Z,1015.05
2019-01-19T05:10:43.762Z,1015.02
2019-01-19T05:11:43.773Z,1015.04
2019-01-19T05:12:43.788Z,1015.04
2019-01-19T05:13:43.796Z,1015.05
2019-01-19T05:14:43.808Z,1015.02
2019-01-19T05:15:43.819Z,1015
2019-01-19T05:16:43.831Z,1014.99
2019-01-19T05:17:43.843Z,1014.96
2019-01-19T05:18:43.854Z,1014.98
2019-01-19T05:19:43.868Z,1015
2019-01-19T05:20:43.877Z,1015.02
2019-01-19T05:21:43.889Z,1015.02
2019-01-19T05:22:43.901Z,1015.01
2019-01-19T05:23:43.911Z,1015.02
2019-01-19T05:24:43.923Z,1015
2019-01-19T05:25:43.933Z,1015
2019-01-19T05:26:43.945Z,1015.06
2019-01-19T05:27:43.957Z,1015.02
2019-01-19T05:28:43.969Z,1015.04
2019-01-19T05:29:43.979Z,1015
2019-01-19T05:30:43.990Z,1015.06
2019-01-19T05:31:44.004Z,1015.06
2019-01-19T05:32:44.024Z,1015.05
2019-01-19T05:34:44.036Z,1015.01
2019-01-19T05:35:44.047Z,1015
2019-01-19T05:36:44.059Z,1015
2019-01-19T05:37:44.070Z,1015.01
2019-01-19T05:38:44.182Z,1014.99
2019-01-19T05:39:44.093Z,1014.97
2019-01-19T05:40:44.104Z,1015
2019-01-19T05:41:44.117Z,1015
2019-01-19T05:42:44.127Z,1014.98
2019-01-19T05:43:44.139Z,1014.97
2019-01-19T05:44:44.837Z,1014.97
2019-01-19T05:45:44.161Z,1015.02
2019-01-19T05:46:44.172Z,1015.02
2019-01-19T05:47:44.183Z,1015.05
2019-01-19T05:48:44.195Z,1015.06
2019-01-19T05:50:44.218Z,1015.04
2019-01-19T05:51:44.228Z,1015.01
2019-01-19T05:52:44.241Z,1015.04
2019-01-19T05:53:44.251Z,1015.01
2019-01-19T05:54:44.262Z,1015
2019-01-19T05:55:44.325Z,1015.04
2019-01-19T05:56:44.285Z,1015.03
2019-01-19T05:57:44.299Z,1015.08
2019-01-19T05:58:44.308Z,1015.06
2019-01-19T05:59:44.325Z,1015.08
2019-01-19T06:00:44.329Z,1015.06
2019-01-19T06:01:44.345Z,1015.11
2019-01-19T06:02:44.355Z,1015.13
2019-01-19T06:03:44.364Z,1015.11
2019-01-19T06:04:44.374Z,1015.09
2019-01-19T06:06:46.751Z,1015.13
2019-01-19T06:07:44.409Z,1015.15
2019-01-19T06:08:44.419Z,1015.12
2019-01-19T06:09:44.430Z,1015.11
2019-01-19T06:10:44.441Z,1015.13
2019-01-19T06:11:44.453Z,1015.13
2019-01-19T06:12:44.517Z,1015.12
2019-01-19T06:13:44.474Z,1015.12
2019-01-19T06:14:44.485Z,1015.13
2019-01-19T06:15:44.496Z,1015.17
2019-01-19T06:16:44.510Z,1015.13
2019-01-19T06:17:44.525Z,1015.14
2019-01-19T06:18:44.530Z,1015.18
2019-01-19T06:19:44.541Z,1015.14
2019-01-19T06:20:44.554Z,1015.17
2019-01-19T06:22:44.575Z,1015.14
2019-01-19T06:23:44.589Z,1015.11
2019-01-19T06:24:44.596Z,1015.13
2019-01-19T06:25:44.611Z,1015.1
2019-01-19T06:26:44.619Z,1015.14
2019-01-19T06:27:44.630Z,1015.1
2019-01-19T06:28:44.641Z,1015.09
2019-01-19T06:29:44.653Z,1015.15
2019-01-19T06:30:44.665Z,1015.17
2019-01-19T06:31:44.674Z,1015.14
2019-01-19T06:32:44.688Z,1015.19
2019-01-19T06:33:44.698Z,1015.18
2019-01-19T06:34:44.709Z,1015.14
2019-01-19T06:35:44.720Z,1015.19
2019-01-19T06:37:44.749Z,1015.18
2019-01-19T06:38:44.754Z,1015.15
2019-01-19T06:39:44.767Z,1015.18
2019-01-19T06:40:44.778Z,1015.18
2019-01-19T06:41:44.787Z,1015.14
2019-01-19T06:42:44.798Z,1015.17
2019-01-19T06:43:44.811Z,1015.16
2019-01-19T06:44:44.822Z,1015.2
2019-01-19T06:45:44.832Z,1015.24
2019-01-19T06:46:44.843Z,1015.19
2019-01-19T06:47:44.854Z,1015.18
2019-01-19T06:48:44.866Z,1015.22
2019-01-19T06:49:44.876Z,1015.21
2019-01-19T06:50:44.892Z,1015.24
2019-01-19T06:51:44.899Z,1015.21
2019-01-19T06:52:44.911Z,1015.23
2019-01-19T06:53:44.921Z,1015.27
2019-01-19T06:54:44.932Z,1015.28
2019-01-19T06:55:44.946Z,1015.27
2019-01-19T06:56:44.955Z,1015.29
2019-01-19T06:57:44.966Z,1015.27
2019-01-19T06:58:44.979Z,1015.27
2019-01-19T06:59:44.990Z,1015.28
2019-01-19T07:00:45.000Z,1015.28
2019-01-19T07:01:45.018Z,1015.31
2019-01-19T07:02:45.123Z,1015.26
2019-01-19T07:03:45.039Z,1015.3
2019-01-19T07:04:45.045Z,1015.33
2019-01-19T07:05:45.056Z,1015.3
2019-01-19T07:06:45.067Z,1015.36
2019-01-19T07:07:45.079Z,1015.35
2019-01-19T07:09:45.103Z,1015.36
2019-01-19T07:10:45.112Z,1015.38
2019-01-19T07:11:45.123Z,1015.34
2019-01-19T07:12:45.134Z,1015.34
2019-01-19T07:13:45.147Z,1015.36
2019-01-19T07:14:45.157Z,1015.37
2019-01-19T07:15:45.169Z,1015.38
2019-01-19T07:16:45.182Z,1015.37
2019-01-19T07:17:45.191Z,1015.38
2019-01-19T07:18:45.203Z,1015.4
2019-01-19T07:19:45.213Z,1015.38
2019-01-19T07:20:45.224Z,1015.36
2019-01-19T07:21:45.236Z,1015.38
2019-01-19T07:22:45.246Z,1015.38
2019-01-19T07:23:45.260Z,1015.36
2019-01-19T07:25:45.521Z,1015.4
2019-01-19T07:26:45.292Z,1015.42
2019-01-19T07:27:45.307Z,1015.41
2019-01-19T07:28:45.315Z,1015.42
2019-01-19T07:29:45.375Z,1015.45
2019-01-19T07:30:45.336Z,1015.44
2019-01-19T07:31:45.348Z,1015.46
2019-01-19T07:32:45.360Z,1015.44
2019-01-19T07:33:45.372Z,1015.45
2019-01-19T07:34:45.382Z,1015.46
2019-01-19T07:35:45.395Z,1015.43
2019-01-19T07:36:45.405Z,1015.48
2019-01-19T07:37:45.416Z,1015.52
2019-01-19T07:38:45.429Z,1015.5
2019-01-19T07:39:45.441Z,1015.53
2019-01-19T07:41:45.461Z,1015.48
2019-01-19T07:42:45.473Z,1015.47
2019-01-19T07:43:45.484Z,1015.54
2019-01-19T07:44:45.494Z,1015.53
2019-01-19T07:45:45.507Z,1015.55
2019-01-19T07:46:45.519Z,1015.55
2019-01-19T07:47:45.530Z,1015.53
2019-01-19T07:48:45.541Z,1015.57
2019-01-19T07:49:45.552Z,1015.58
2019-01-19T07:50:45.564Z,1015.6
2019-01-19T07:51:45.575Z,1015.62
2019-01-19T07:52:45.587Z,1015.6
2019-01-19T07:53:45.599Z,1015.63
2019-01-19T07:54:45.611Z,1015.65
2019-01-19T07:55:45.624Z,1015.65
2019-01-19T07:57:45.646Z,1015.72
2019-01-19T07:58:45.659Z,1015.67
2019-01-19T07:59:45.668Z,1015.7
2019-01-19T08:00:45.680Z,1015.71
2019-01-19T08:01:45.693Z,1015.68
2019-01-19T08:02:45.703Z,1015.72
2019-01-19T08:03:45.765Z,1015.68
2019-01-19T08:04:45.727Z,1015.66
2019-01-19T08:05:45.739Z,1015.68
2019-01-19T08:06:45.750Z,1015.67
2019-01-19T08:07:45.762Z,1015.67
2019-01-19T08:08:45.824Z,1015.69
2019-01-19T08:09:45.786Z,1015.69
2019-01-19T08:10:45.797Z,1015.71
2019-01-19T08:12:45.826Z,1015.69
2019-01-19T08:13:45.833Z,1015.75
2019-01-19T08:14:45.845Z,1015.72
2019-01-19T08:15:45.856Z,1015.75
2019-01-19T08:16:45.869Z,1015.68
2019-01-19T08:17:45.883Z,1015.72
2019-01-19T08:18:45.892Z,1015.71
2019-01-19T08:19:45.906Z,1015.7
2019-01-19T08:20:45.914Z,1015.73
2019-01-19T08:21:45.929Z,1015.75
2019-01-19T08:22:45.938Z,1015.73
2019-01-19T08:23:45.952Z,1015.72
2019-01-19T08:24:45.962Z,1015.74
2019-01-19T08:25:45.973Z,1015.75
2019-01-19T08:26:45.995Z,1015.72
2019-01-19T08:27:45.997Z,1015.77
2019-01-19T08:28:46.009Z,1015.8
2019-01-19T08:29:46.020Z,1015.76
2019-01-19T08:30:46.032Z,1015.78
2019-01-19T08:31:46.052Z,1015.79
2019-01-19T08:32:46.056Z,1015.85
2019-01-19T08:33:46.069Z,1015.82
2019-01-19T08:34:46.615Z,1015.84
2019-01-19T08:35:46.091Z,1015.85
2019-01-19T08:36:46.103Z,1015.83
2019-01-19T08:37:46.115Z,1015.83
2019-01-19T08:38:46.126Z,1015.84
2019-01-19T08:39:46.138Z,1015.84
2019-01-19T08:40:46.150Z,1015.88
2019-01-19T08:41:46.162Z,1015.85
2019-01-19T08:42:46.173Z,1015.84
2019-01-19T08:44:46.197Z,1015.82
2019-01-19T08:45:46.209Z,1015.84
2019-01-19T08:46:46.221Z,1015.88
2019-01-19T08:47:46.233Z,1015.84
2019-01-19T08:48:46.245Z,1015.87
2019-01-19T08:49:46.257Z,1015.9
2019-01-19T08:50:46.268Z,1015.93
2019-01-19T08:51:46.282Z,1015.94
2019-01-19T08:52:46.293Z,1015.96
2019-01-19T08:53:46.305Z,1015.93
2019-01-19T08:54:46.317Z,1015.97
2019-01-19T08:55:46.329Z,1015.98
2019-01-19T08:56:46.344Z,1015.97
2019-01-19T08:57:46.352Z,1015.98
2019-01-19T08:58:46.466Z,1015.96
2019-01-19T09:00:46.390Z,1015.99
2019-01-19T09:01:46.401Z,1015.98
2019-01-19T09:02:46.414Z,1015.96
2019-01-19T09:03:46.427Z,1015.96
2019-01-19T09:04:46.438Z,1015.97
2019-01-19T09:05:46.450Z,1015.95
2019-01-19T09:06:46.463Z,1016
2019-01-19T09:07:46.476Z,1015.99
2019-01-19T09:08:46.488Z,1015.99
2019-01-19T09:09:46.500Z,1016
2019-01-19T09:10:46.512Z,1015.96
2019-01-19T09:11:46.525Z,1015.97
2019-01-19T09:12:46.537Z,1015.94
2019-01-19T09:13:46.550Z,1015.99
2019-01-19T09:14:46.563Z,1015.89
2019-01-19T09:16:46.587Z,1015.95
2019-01-19T09:17:46.600Z,1015.93
2019-01-19T09:18:46.613Z,1015.93
2019-01-19T09:19:46.675Z,1015.93
2019-01-19T09:20:46.638Z,1015.96
2019-01-19T09:21:46.651Z,1015.97
2019-01-19T09:22:46.666Z,1015.97
2019-01-19T09:23:46.675Z,1015.96
2019-01-19T09:24:46.688Z,1015.93
2019-01-19T09:25:46.701Z,1015.96
2019-01-19T09:26:46.713Z,1015.95
2019-01-19T09:27:46.728Z,1015.91
2019-01-19T09:28:46.740Z,1015.93
2019-01-19T09:29:46.753Z,1015.95
2019-01-19T09:30:46.764Z,1015.92
2019-01-19T09:32:46.796Z,1015.93
2019-01-19T09:33:46.806Z,1015.94
2019-01-19T09:34:46.818Z,1015.96
2019-01-19T09:35:46.830Z,1016
2019-01-19T09:36:46.843Z,1015.96
2019-01-19T09:37:47.041Z,1015.94
2019-01-19T09:38:46.868Z,1015.94
2019-01-19T09:39:46.882Z,1015.92
2019-01-19T09:40:46.895Z,1015.91
2019-01-19T09:41:46.907Z,1015.9
2019-01-19T09:42:46.920Z,1015.92
2019-01-19T09:43:46.934Z,1015.95
2019-01-19T09:44:46.948Z,1015.94
2019-01-19T09:45:46.960Z,1015.93
2019-01-19T09:47:46.987Z,1015.96
2019-01-19T09:48:47.000Z,1015.92
2019-01-19T09:49:47.013Z,1015.93
2019-01-19T09:50:47.027Z,1015.92
2019-01-19T09:51:47.040Z,1015.91
2019-01-19T09:52:47.051Z,1015.91
2019-01-19T09:53:47.165Z,1015.85
2019-01-19T09:54:47.079Z,1015.87
2019-01-19T09:55:47.091Z,1015.9
2019-01-19T09:56:47.105Z,1015.86
2019-01-19T09:57:47.121Z,1015.92
2019-01-19T09:58:47.131Z,1015.88
2019-01-19T09:59:47.143Z,1015.9
2019-01-19T10:00:47.159Z,1015.89
2019-01-19T10:01:47.172Z,1015.89
2019-01-19T10:02:47.184Z,1015.9
2019-01-19T10:03:47.197Z,1015.95
2019-01-19T10:04:47.261Z,1015.9
2019-01-19T10:05:47.225Z,1015.87
2019-01-19T10:06:48.180Z,1015.91
2019-01-19T10:07:48.531Z,1015.93
2019-01-19T10:08:47.265Z,1015.88
2019-01-19T10:09:47.278Z,1015.92
2019-01-19T10:10:47.290Z,1015.93
2019-01-19T10:11:47.303Z,1015.95
2019-01-19T10:12:47.319Z,1015.95
2019-01-19T10:13:47.331Z,1015.89
2019-01-19T10:14:47.344Z,1015.94
2019-01-19T10:15:47.358Z,1015.87
2019-01-19T10:16:47.371Z,1015.88
2019-01-19T10:17:47.383Z,1015.91
2019-01-19T10:19:47.411Z,1015.87
2019-01-19T10:20:47.425Z,1015.88
2019-01-19T10:21:47.439Z,1015.9
2019-01-19T10:22:47.455Z,1015.88
2019-01-19T10:23:47.467Z,1015.88
2019-01-19T10:24:47.497Z,1015.89
2019-01-19T10:25:47.491Z,1015.88
2019-01-19T10:26:47.504Z,1015.92
2019-01-19T10:27:47.518Z,1015.92
2019-01-19T10:28:47.530Z,1015.92
2019-01-19T10:29:47.544Z,1015.82
2019-01-19T10:30:47.557Z,1015.86
2019-01-19T10:31:47.571Z,1015.85
2019-01-19T10:32:47.584Z,1015.85
2019-01-19T10:33:47.649Z,1015.84
2019-01-19T10:35:47.624Z,1015.86
2019-01-19T10:36:47.637Z,1015.82
2019-01-19T10:37:47.651Z,1015.82
2019-01-19T10:38:47.715Z,1015.83
2019-01-19T10:39:47.677Z,1015.81
2019-01-19T10:40:47.690Z,1015.81
2019-01-19T10:41:47.705Z,1015.81
2019-01-19T10:42:47.718Z,1015.82
2019-01-19T10:43:49.307Z,1015.76
2019-01-19T10:44:47.794Z,1015.8
2019-01-19T10:45:47.757Z,1015.79
2019-01-19T10:46:47.771Z,1015.8
2019-01-19T10:47:47.783Z,1015.79
2019-01-19T10:48:47.797Z,1015.79
2019-01-19T10:49:47.812Z,1015.77
2019-01-19T10:51:47.837Z,1015.8
2019-01-19T10:52:47.851Z,1015.78
2019-01-19T10:53:47.864Z,1015.79
2019-01-19T10:54:47.877Z,1015.78
2019-01-19T10:55:47.891Z,1015.75
2019-01-19T10:56:47.904Z,1015.74
2019-01-19T10:57:47.917Z,1015.74
2019-01-19T10:58:47.930Z,1015.72
2019-01-19T10:59:47.944Z,1015.7
2019-01-19T11:00:47.960Z,1015.72
2019-01-19T11:01:47.970Z,1015.71
2019-01-19T11:02:47.983Z,1015.7
2019-01-19T11:03:47.998Z,1015.71
2019-01-19T11:04:48.011Z,1015.7
2019-01-19T11:05:48.073Z,1015.67
2019-01-19T11:07:48.050Z,1015.66
2019-01-19T11:08:48.069Z,1015.66
2019-01-19T11:09:48.078Z,1015.62
2019-01-19T11:10:48.091Z,1015.65
2019-01-19T11:11:48.206Z,1015.57
2019-01-19T11:12:48.117Z,1015.59
2019-01-19T11:13:48.130Z,1015.58
2019-01-19T11:14:48.144Z,1015.58
2019-01-19T11:15:48.161Z,1015.59
2019-01-19T11:16:48.270Z,1015.56
2019-01-19T11:17:48.184Z,1015.55
2019-01-19T11:18:48.198Z,1015.58
2019-01-19T11:19:48.211Z,1015.58
2019-01-19T11:20:48.225Z,1015.56
2019-01-19T11:22:48.253Z,1015.55
2019-01-19T11:23:48.265Z,1015.56
2019-01-19T11:24:48.278Z,1015.55
2019-01-19T11:25:48.292Z,1015.53
2019-01-19T11:26:48.306Z,1015.51
2019-01-19T11:27:48.319Z,1015.54
2019-01-19T11:28:48.340Z,1015.47
2019-01-19T11:29:48.350Z,1015.48
2019-01-19T11:30:48.359Z,1015.48
2019-01-19T11:31:48.373Z,1015.43
2019-01-19T11:32:48.386Z,1015.44
2019-01-19T11:33:48.400Z,1015.45
2019-01-19T11:34:48.413Z,1015.43
2019-01-19T11:35:48.427Z,1015.4
2019-01-19T11:36:48.440Z,1015.41
2019-01-19T11:37:48.453Z,1015.35
2019-01-19T11:38:48.468Z,1015.36
2019-01-19T11:39:48.480Z,1015.35
2019-01-19T11:40:48.494Z,1015.34
2019-01-19T11:41:48.507Z,1015.32
2019-01-19T11:42:48.520Z,1015.3
2019-01-19T11:43:48.534Z,1015.26
2019-01-19T11:44:48.548Z,1015.26
2019-01-19T11:45:48.611Z,1015.28
2019-01-19T11:46:48.574Z,1015.25
2019-01-19T11:47:48.588Z,1015.24
2019-01-19T11:48:48.601Z,1015.23
2019-01-19T11:49:48.615Z,1015.18
2019-01-19T11:50:48.629Z,1015.2
2019-01-19T11:51:48.642Z,1015.23
2019-01-19T11:52:48.655Z,1015.19
2019-01-19T11:54:48.683Z,1015.18
2019-01-19T11:55:48.712Z,1015.19
2019-01-19T11:56:48.710Z,1015.17
2019-01-19T11:57:48.724Z,1015.15
2019-01-19T11:58:48.739Z,1015.11
2019-01-19T11:59:48.751Z,1015.12
2019-01-19T12:00:48.765Z,1015.15
2019-01-19T12:01:48.781Z,1015.08
2019-01-19T12:02:48.793Z,1015.1
2019-01-19T12:03:48.805Z,1015.1
2019-01-19T12:04:48.818Z,1015.07
2019-01-19T12:05:48.833Z,1015.11
2019-01-19T12:06:48.846Z,1015.09
2019-01-19T12:07:48.862Z,1015.09
2019-01-19T12:08:48.873Z,1015.08
2019-01-19T12:10:48.903Z,1015.04
2019-01-19T12:11:48.915Z,1015.02
2019-01-19T12:12:48.928Z,1015.08
2019-01-19T12:13:48.943Z,1015.11
2019-01-19T12:14:48.955Z,1015.02
2019-01-19T12:15:49.019Z,1015.02
2019-01-19T12:16:48.983Z,1015.04
2019-01-19T12:17:48.997Z,1015.02
2019-01-19T12:18:49.011Z,1015.05
2019-01-19T12:19:49.024Z,1015
2019-01-19T12:20:49.038Z,1015.02
2019-01-19T12:21:49.054Z,1015.02
2019-01-19T12:22:49.068Z,1015.01
2019-01-19T12:23:49.079Z,1015.02
2019-01-19T12:24:49.094Z,1015
2019-01-19T12:26:49.121Z,1015.02
2019-01-19T12:27:49.133Z,1014.99
2019-01-19T12:28:49.147Z,1014.99
2019-01-19T12:29:49.211Z,1015
2019-01-19T12:30:49.174Z,1014.99
2019-01-19T12:31:49.189Z,1015.04
2019-01-19T12:32:49.204Z,1014.97
2019-01-19T12:33:49.217Z,1015.01
2019-01-19T12:34:49.229Z,1015
2019-01-19T12:35:49.245Z,1014.99
2019-01-19T12:36:49.257Z,1014.98
2019-01-19T12:37:49.272Z,1014.99
2019-01-19T12:38:49.285Z,1014.99
2019-01-19T12:39:49.300Z,1014.98
2019-01-19T12:40:49.312Z,1014.99
2019-01-19T12:42:49.344Z,1014.97
2019-01-19T12:43:49.354Z,1014.93
2019-01-19T12:44:49.368Z,1014.91
2019-01-19T12:45:49.382Z,1014.9
2019-01-19T12:46:49.399Z,1014.9
2019-01-19T12:47:49.410Z,1014.89
2019-01-19T12:48:49.424Z,1014.91
2019-01-19T12:49:49.440Z,1014.9
2019-01-19T12:50:49.554Z,1014.91
2019-01-19T12:51:49.465Z,1014.89